Time;durP1;ratioP1;P1;durP2;ratioP2;P2;SDS_P1;SDS_P2;PMS_P1;PMS_P2;Temp;Humidity;BMP_temperature;BMP_pressure;BME280_temperature;BME280_humidity;BME280_pressure;Samples;Min_cycle;Max_cycle;Signal;HPM_P1;HPM_P2
2022/01/30 00:02:19;;;;;;;3.40;1.70;;;;;;;;;;5078337;28;20264;-82
2022/01/30 00:04:47;;;;;;;3.28;1.95;;;;;;;;;;5078176;28;20221;-81
2022/01/30 00:07:14;;;;;;;3.47;1.88;;;;;;;;;;5078369;28;20197;-82
2022/01/30 00:09:42;;;;;;;2.58;1.90;;;;;;;;;;5077014;28;20200;-80
2022/01/30 00:12:15;;;;;;;5.25;2.13;;;;;;;;;;5077249;28;20201;-80
2022/01/30 00:14:42;;;;;;;3.22;1.50;;;;;;;;;;5077686;28;20228;-81
2022/01/30 00:17:15;;;;;;;5.18;1.92;;;;;;;;;;5077858;28;20204;-81
2022/01/30 00:19:46;;;;;;;6.25;2.53;;;;;;;;;;5077663;28;20204;-82
2022/01/30 00:22:19;;;;;;;7.85;2.45;;;;;;;;;;5077267;28;20292;-81
2022/01/30 00:24:53;;;;;;;6.75;4.20;;;;;;;;;;5078163;28;20315;-81
2022/01/30 00:27:27;;;;;;;8.50;1.85;;;;;;;;;;5077442;28;20197;-80
2022/01/30 00:29:55;;;;;;;9.70;2.05;;;;;;;;;;5077401;28;20249;-81
2022/01/30 00:32:22;;;;;;;6.35;2.83;;;;;;;;;;5077059;28;20206;-81
2022/01/30 00:34:50;;;;;;;7.97;2.60;;;;;;;;;;5077145;28;20221;-81
2022/01/30 00:37:18;;;;;;;8.77;3.35;;;;;;;;;;5076805;28;20208;-79
2022/01/30 00:39:46;;;;;;;9.10;2.72;;;;;;;;;;5076671;28;20231;-80
2022/01/30 00:42:14;;;;;;;6.82;3.45;;;;;;;;;;5075469;28;20221;-81
2022/01/30 00:44:41;;;;;;;13.05;3.78;;;;;;;;;;5075803;28;20224;-79
2022/01/30 00:47:13;;;;;;;9.10;3.78;;;;;;;;;;5076613;28;20204;-79
2022/01/30 00:49:41;;;;;;;8.13;3.08;;;;;;;;;;5075845;28;20216;-81
2022/01/30 00:52:10;;;;;;;8.52;3.40;;;;;;;;;;5076104;28;20549;-81
2022/01/30 00:54:38;;;;;;;9.50;4.75;;;;;;;;;;5075880;28;20306;-80
2022/01/30 00:57:07;;;;;;;8.88;3.75;;;;;;;;;;5076409;28;20227;-80
2022/01/30 00:59:34;;;;;;;9.45;3.28;;;;;;;;;;5076220;28;20205;-79
2022/01/30 01:02:01;;;;;;;11.82;3.42;;;;;;;;;;5075852;28;20229;-79
2022/01/30 01:04:29;;;;;;;8.75;3.28;;;;;;;;;;5075522;28;20271;-81
2022/01/30 01:06:56;;;;;;;11.45;2.92;;;;;;;;;;5075702;28;20680;-80
2022/01/30 01:09:31;;;;;;;12.77;3.42;;;;;;;;;;5076886;28;20201;-80
2022/01/30 01:12:30;;;;;;;9.90;3.28;;;;;;;;;;5076403;28;20246;-81
2022/01/30 01:23:26;;;;;;;14.73;4.20;;;;;;;;;;5076058;28;20204;-79
2022/01/30 01:25:55;;;;;;;7.35;3.63;;;;;;;;;;5078118;28;20224;-79
2022/01/30 01:28:22;;;;;;;11.43;3.13;;;;;;;;;;5077890;28;20201;-81
2022/01/30 01:30:51;;;;;;;18.15;4.00;;;;;;;;;;5077261;28;20208;-80
2022/01/30 01:33:19;;;;;;;9.30;2.83;;;;;;;;;;5077729;28;20200;-79
2022/01/30 01:35:47;;;;;;;11.60;4.47;;;;;;;;;;5078527;28;20607;-80
2022/01/30 01:38:15;;;;;;;6.60;3.08;;;;;;;;;;5078576;28;20223;-79
2022/01/30 01:40:50;;;;;;;11.27;4.25;;;;;;;;;;5075420;28;20219;-80
2022/01/30 01:43:18;;;;;;;11.52;3.88;;;;;;;;;;5075197;28;20246;-80
2022/01/30 01:45:48;;;;;;;7.40;3.97;;;;;;;;;;5075661;28;20221;-80
2022/01/30 01:48:18;;;;;;;12.13;5.03;;;;;;;;;;5075825;28;20205;-80
2022/01/30 01:50:52;;;;;;;10.75;3.47;;;;;;;;;;5075440;28;20197;-82
2022/01/30 01:53:23;;;;;;;12.98;5.00;;;;;;;;;;5074994;28;20201;-82
2022/01/30 01:55:51;;;;;;;13.35;6.40;;;;;;;;;;5075144;28;20229;-80
2022/01/30 01:58:19;;;;;;;13.65;3.13;;;;;;;;;;5075771;28;20205;-80
2022/01/30 02:00:46;;;;;;;11.68;3.03;;;;;;;;;;5078709;28;20205;-80
2022/01/30 02:03:16;;;;;;;6.18;3.35;;;;;;;;;;5080570;28;20201;-82
2022/01/30 02:05:50;;;;;;;8.00;2.72;;;;;;;;;;5082023;28;20236;-82
2022/01/30 02:08:30;;;;;;;10.52;3.45;;;;;;;;;;5077962;28;20197;-81
2022/01/30 02:11:02;;;;;;;11.77;4.20;;;;;;;;;;5075658;28;20295;-80
2022/01/30 02:13:52;;;;;;;10.77;4.53;;;;;;;;;;5075715;28;20201;-80
2022/01/30 02:24:57;;;;;;;13.73;5.60;;;;;;;;;;5074870;28;20219;-81
2022/01/30 02:27:31;;;;;;;9.48;3.83;;;;;;;;;;5075165;28;20201;-81
2022/01/30 02:29:59;;;;;;;9.68;4.28;;;;;;;;;;5074852;28;20211;-81
2022/01/30 02:32:27;;;;;;;10.52;3.08;;;;;;;;;;5074358;28;20200;-82
2022/01/30 02:34:54;;;;;;;10.30;4.80;;;;;;;;;;5074628;28;20221;-80
2022/01/30 02:37:21;;;;;;;8.20;3.15;;;;;;;;;;5074832;28;20197;-81
2022/01/30 02:39:50;;;;;;;8.90;2.83;;;;;;;;;;5074082;28;20204;-81
2022/01/30 02:42:21;;;;;;;12.65;4.50;;;;;;;;;;5074481;28;20323;-81
2022/01/30 02:44:53;;;;;;;8.07;2.55;;;;;;;;;;5074736;28;20781;-80
2022/01/30 02:47:36;;;;;;;7.63;3.58;;;;;;;;;;5074681;28;20661;-80
2022/01/30 02:50:18;;;;;;;5.78;2.55;;;;;;;;;;5075042;28;20201;-81
2022/01/30 02:52:55;;;;;;;16.23;3.67;;;;;;;;;;5074670;28;20201;-81
2022/01/30 02:55:24;;;;;;;10.27;3.25;;;;;;;;;;5074333;28;20244;-82
2022/01/30 02:57:51;;;;;;;11.45;3.38;;;;;;;;;;5074438;28;20595;-81
2022/01/30 03:00:19;;;;;;;6.75;2.85;;;;;;;;;;5075110;28;20262;-82
2022/01/30 03:02:46;;;;;;;8.10;3.38;;;;;;;;;;5074158;28;20227;-80
2022/01/30 03:05:13;;;;;;;5.22;2.97;;;;;;;;;;5075047;28;20282;-82
2022/01/30 03:07:41;;;;;;;9.35;3.00;;;;;;;;;;5074359;28;20673;-81
2022/01/30 03:10:10;;;;;;;10.35;3.22;;;;;;;;;;5074710;28;20250;-81
2022/01/30 03:12:39;;;;;;;5.55;2.42;;;;;;;;;;5074242;28;20208;-82
2022/01/30 03:15:08;;;;;;;5.95;2.75;;;;;;;;;;5078569;28;20620;-81
2022/01/30 03:17:35;;;;;;;5.53;3.00;;;;;;;;;;5078657;28;20548;-83
2022/01/30 03:20:04;;;;;;;7.68;3.05;;;;;;;;;;5078244;28;20209;-81
2022/01/30 03:22:31;;;;;;;9.52;2.90;;;;;;;;;;5078509;28;20229;-80
2022/01/30 03:24:59;;;;;;;10.18;3.80;;;;;;;;;;5078215;28;20228;-81
2022/01/30 03:27:28;;;;;;;6.65;3.85;;;;;;;;;;5077578;28;20201;-81
2022/01/30 03:30:04;;;;;;;9.57;3.80;;;;;;;;;;5077721;28;20241;-81
2022/01/30 03:32:31;;;;;;;11.98;3.40;;;;;;;;;;5077698;28;20632;-81
2022/01/30 03:35:00;;;;;;;8.38;2.88;;;;;;;;;;5077457;28;20224;-81
2022/01/30 03:37:28;;;;;;;6.10;2.97;;;;;;;;;;5077786;28;20212;-79
2022/01/30 03:39:55;;;;;;;7.47;2.88;;;;;;;;;;5077111;28;20212;-81
2022/01/30 03:42:23;;;;;;;12.25;3.15;;;;;;;;;;5077722;28;20225;-81
2022/01/30 03:44:50;;;;;;;8.90;3.00;;;;;;;;;;5077608;28;20217;-81
2022/01/30 03:47:19;;;;;;;10.02;3.33;;;;;;;;;;5077446;28;20197;-81
2022/01/30 03:49:46;;;;;;;14.55;3.40;;;;;;;;;;5077315;28;20815;-80
2022/01/30 03:52:13;;;;;;;9.35;3.50;;;;;;;;;;5076993;28;20231;-81
2022/01/30 03:54:40;;;;;;;14.85;3.97;;;;;;;;;;5102254;22;20232;-86
2022/01/30 03:57:08;;;;;;;8.45;3.80;;;;;;;;;;5095679;28;20223;-83
2022/01/30 03:59:35;;;;;;;9.82;3.03;;;;;;;;;;5095806;28;20204;-85
2022/01/30 04:02:04;;;;;;;7.45;3.00;;;;;;;;;;5095510;28;20211;-84
2022/01/30 04:04:33;;;;;;;6.07;2.60;;;;;;;;;;5095811;28;20203;-86
2022/01/30 04:07:01;;;;;;;10.27;4.57;;;;;;;;;;5096190;28;20281;-85
2022/01/30 04:09:29;;;;;;;9.73;3.53;;;;;;;;;;5094911;28;20207;-84
2022/01/30 04:11:57;;;;;;;11.25;3.85;;;;;;;;;;5096224;28;20672;-84
2022/01/30 04:14:25;;;;;;;12.85;3.78;;;;;;;;;;5096631;28;20200;-84
2022/01/30 04:16:53;;;;;;;11.95;3.15;;;;;;;;;;5096461;28;20761;-84
2022/01/30 04:19:20;;;;;;;5.47;2.78;;;;;;;;;;5096640;28;20200;-83
2022/01/30 04:21:51;;;;;;;6.45;2.35;;;;;;;;;;5095574;28;20208;-84
2022/01/30 04:24:18;;;;;;;8.43;2.78;;;;;;;;;;5096874;28;20204;-85
2022/01/30 04:26:45;;;;;;;10.30;3.35;;;;;;;;;;5096827;28;20216;-86
2022/01/30 04:29:13;;;;;;;15.48;3.60;;;;;;;;;;5096838;28;20192;-85
2022/01/30 04:31:42;;;;;;;11.98;3.50;;;;;;;;;;5096086;28;20688;-86
2022/01/30 04:34:10;;;;;;;7.53;3.00;;;;;;;;;;5096813;28;20197;-85
2022/01/30 04:36:43;;;;;;;10.25;3.38;;;;;;;;;;5096294;28;20696;-83
2022/01/30 04:39:36;;;;;;;8.93;2.95;;;;;;;;;;5096008;28;20231;-85
2022/01/30 04:42:24;;;;;;;11.20;2.97;;;;;;;;;;5095576;28;20192;-87
2022/01/30 04:53:15;;;;;;;5.43;2.47;;;;;;;;;;5095234;28;20191;-83
2022/01/30 04:58:47;;;;;;;12.00;3.13;;;;;;;;;;5079125;28;20238;-86
2022/01/30 05:01:20;;;;;;;5.10;2.67;;;;;;;;;;5095294;28;20184;-85
2022/01/30 05:03:58;;;;;;;9.70;3.60;;;;;;;;;;5094392;28;20216;-86
2022/01/30 05:06:41;;;;;;;5.15;3.03;;;;;;;;;;5094618;28;20281;-87
2022/01/30 05:09:09;;;;;;;9.20;3.45;;;;;;;;;;5094557;28;20188;-88
2022/01/30 05:11:38;;;;;;;10.05;3.15;;;;;;;;;;5093886;28;20199;-87
2022/01/30 05:14:06;;;;;;;8.00;2.45;;;;;;;;;;5094283;28;20204;-85
2022/01/30 05:16:35;;;;;;;7.85;2.58;;;;;;;;;;5093772;28;20224;-86
2022/01/30 05:19:03;;;;;;;10.52;3.60;;;;;;;;;;5094688;28;20215;-88
2022/01/30 05:21:31;;;;;;;5.00;2.40;;;;;;;;;;5094056;28;20193;-87
2022/01/30 05:23:59;;;;;;;11.00;3.05;;;;;;;;;;5094041;28;20223;-87
2022/01/30 05:26:28;;;;;;;9.40;3.63;;;;;;;;;;5094181;28;20246;-86
2022/01/30 05:28:57;;;;;;;5.82;3.28;;;;;;;;;;5094255;28;20204;-87
2022/01/30 05:31:25;;;;;;;10.68;3.65;;;;;;;;;;5093984;28;20227;-87
2022/01/30 05:33:53;;;;;;;12.55;3.72;;;;;;;;;;5093920;28;20199;-86
2022/01/30 05:36:22;;;;;;;10.63;2.70;;;;;;;;;;5092849;28;20217;-87
2022/01/30 05:38:50;;;;;;;10.35;2.97;;;;;;;;;;5094271;28;20207;-88
2022/01/30 05:41:19;;;;;;;9.35;3.55;;;;;;;;;;5094007;28;20211;-87
2022/01/30 05:43:58;;;;;;;11.30;3.65;;;;;;;;;;5093632;28;20228;-87
2022/01/30 05:46:32;;;;;;;10.95;3.60;;;;;;;;;;5093836;28;20243;-84
2022/01/30 05:49:01;;;;;;;10.32;3.55;;;;;;;;;;5093752;28;20211;-83
2022/01/30 05:51:28;;;;;;;8.13;3.10;;;;;;;;;;5093487;28;20295;-84
2022/01/30 05:53:56;;;;;;;7.05;2.95;;;;;;;;;;5092957;28;20622;-84
2022/01/30 05:56:23;;;;;;;6.15;2.65;;;;;;;;;;5093291;28;20220;-84
2022/01/30 05:58:51;;;;;;;11.02;2.97;;;;;;;;;;5093187;28;20200;-85
2022/01/30 06:01:20;;;;;;;8.35;2.70;;;;;;;;;;5094010;28;20672;-84
2022/01/30 06:03:47;;;;;;;7.18;2.25;;;;;;;;;;5093372;28;20224;-85
2022/01/30 06:06:15;;;;;;;6.65;2.58;;;;;;;;;;5093452;28;20224;-84
2022/01/30 06:08:45;;;;;;;13.32;2.72;;;;;;;;;;5093597;28;20203;-85
2022/01/30 06:11:13;;;;;;;8.80;2.63;;;;;;;;;;5093288;28;20208;-84
2022/01/30 06:13:41;;;;;;;7.20;2.75;;;;;;;;;;5092465;28;20196;-84
2022/01/30 06:16:08;;;;;;;9.70;3.20;;;;;;;;;;5093023;28;20710;-84
2022/01/30 06:18:37;;;;;;;5.30;2.85;;;;;;;;;;5092704;28;20196;-83
2022/01/30 06:21:04;;;;;;;4.57;1.95;;;;;;;;;;5091837;28;20265;-84
2022/01/30 06:23:32;;;;;;;5.80;3.28;;;;;;;;;;5092431;28;20216;-85
2022/01/30 06:26:00;;;;;;;8.55;2.67;;;;;;;;;;5092261;28;20221;-86
2022/01/30 06:28:27;;;;;;;6.97;2.28;;;;;;;;;;5093052;28;20651;-85
2022/01/30 06:30:55;;;;;;;9.88;2.90;;;;;;;;;;5092216;28;20192;-86
2022/01/30 06:33:22;;;;;;;7.20;2.85;;;;;;;;;;5092622;28;20616;-86
2022/01/30 06:35:51;;;;;;;8.98;3.90;;;;;;;;;;5092418;28;20216;-85
2022/01/30 06:38:18;;;;;;;7.20;3.25;;;;;;;;;;5092680;28;20199;-86
2022/01/30 06:40:45;;;;;;;12.48;3.17;;;;;;;;;;5092710;28;20196;-84
2022/01/30 06:43:13;;;;;;;9.20;2.97;;;;;;;;;;5092447;28;20672;-85
2022/01/30 06:45:42;;;;;;;9.40;2.80;;;;;;;;;;5092386;28;20224;-85
2022/01/30 06:48:10;;;;;;;6.10;2.25;;;;;;;;;;5097628;28;20207;-86
2022/01/30 06:50:38;;;;;;;8.70;3.17;;;;;;;;;;5099552;28;20200;-86
2022/01/30 06:53:06;;;;;;;5.25;3.20;;;;;;;;;;5099216;28;20664;-86
2022/01/30 06:55:34;;;;;;;4.18;2.03;;;;;;;;;;5098959;28;20651;-85
2022/01/30 06:58:01;;;;;;;8.18;3.15;;;;;;;;;;5099274;28;20207;-84
2022/01/30 07:00:28;;;;;;;10.95;3.40;;;;;;;;;;5099317;28;20208;-85
2022/01/30 07:02:56;;;;;;;6.20;2.35;;;;;;;;;;5098873;28;20207;-85
2022/01/30 07:05:23;;;;;;;10.77;2.83;;;;;;;;;;5099179;28;20232;-86
2022/01/30 07:07:51;;;;;;;4.28;2.83;;;;;;;;;;5099521;28;20200;-87
2022/01/30 07:10:19;;;;;;;11.77;3.70;;;;;;;;;;5103189;28;20199;-86
2022/01/30 07:12:47;;;;;;;7.53;2.83;;;;;;;;;;5104676;28;20200;-86
2022/01/30 07:15:15;;;;;;;10.10;3.15;;;;;;;;;;5105269;28;20239;-85
2022/01/30 07:17:43;;;;;;;13.55;2.88;;;;;;;;;;5103916;28;20204;-85
2022/01/30 07:20:11;;;;;;;13.85;3.97;;;;;;;;;;5100494;28;20207;-85
2022/01/30 07:22:39;;;;;;;13.65;3.75;;;;;;;;;;5099425;28;20603;-86
2022/01/30 07:25:07;;;;;;;12.02;4.43;;;;;;;;;;5098268;28;20224;-85
2022/01/30 07:27:36;;;;;;;10.55;3.40;;;;;;;;;;5098840;28;20266;-85
2022/01/30 07:30:05;;;;;;;11.43;3.40;;;;;;;;;;5099016;28;20196;-87
2022/01/30 07:32:32;;;;;;;12.73;4.10;;;;;;;;;;5098830;28;20197;-86
2022/01/30 07:34:59;;;;;;;14.90;3.65;;;;;;;;;;5098496;28;20220;-85
2022/01/30 07:37:27;;;;;;;8.07;3.88;;;;;;;;;;5098416;28;20497;-87
2022/01/30 07:39:58;;;;;;;8.00;3.10;;;;;;;;;;5099016;28;20196;-85
2022/01/30 07:42:26;;;;;;;8.18;4.18;;;;;;;;;;5099096;28;20215;-86
2022/01/30 07:44:55;;;;;;;8.20;4.22;;;;;;;;;;5099112;28;20235;-86
2022/01/30 07:47:22;;;;;;;13.57;3.97;;;;;;;;;;5098677;28;20207;-85
2022/01/30 07:49:51;;;;;;;9.10;3.15;;;;;;;;;;5098807;28;20200;-86
2022/01/30 07:52:19;;;;;;;13.88;3.72;;;;;;;;;;5098692;28;20234;-87
2022/01/30 07:54:47;;;;;;;16.50;5.05;;;;;;;;;;5099058;28;20199;-88
2022/01/30 07:57:15;;;;;;;8.82;3.00;;;;;;;;;;5098801;28;20554;-85
2022/01/30 07:59:42;;;;;;;9.25;4.00;;;;;;;;;;5096004;28;20640;-86
2022/01/30 08:02:11;;;;;;;8.82;3.08;;;;;;;;;;5095176;28;20330;-86
2022/01/30 08:04:39;;;;;;;14.93;3.60;;;;;;;;;;5095423;28;20227;-86
2022/01/30 08:07:06;;;;;;;12.68;3.55;;;;;;;;;;5095776;28;20196;-86
2022/01/30 08:09:33;;;;;;;10.60;3.45;;;;;;;;;;5095280;28;20198;-86
2022/01/30 08:12:01;;;;;;;9.60;3.53;;;;;;;;;;5095270;28;20326;-86
2022/01/30 08:14:28;;;;;;;6.63;3.88;;;;;;;;;;5095508;28;20253;-85
2022/01/30 08:16:55;;;;;;;9.05;3.85;;;;;;;;;;5095522;28;20594;-86
2022/01/30 08:19:25;;;;;;;14.82;5.50;;;;;;;;;;5095520;28;20196;-87
2022/01/30 08:21:52;;;;;;;7.60;4.10;;;;;;;;;;5095048;28;20223;-87
2022/01/30 08:24:22;;;;;;;11.93;4.07;;;;;;;;;;5095054;28;20204;-87
2022/01/30 08:26:49;;;;;;;15.35;3.42;;;;;;;;;;5095269;28;20229;-87
2022/01/30 08:29:17;;;;;;;11.50;4.05;;;;;;;;;;5095316;28;20201;-87
2022/01/30 08:31:44;;;;;;;7.90;4.03;;;;;;;;;;5095220;28;20304;-86
2022/01/30 08:34:11;;;;;;;13.32;4.72;;;;;;;;;;5095127;28;20196;-85
2022/01/30 08:36:40;;;;;;;9.57;4.07;;;;;;;;;;5094547;28;20227;-87
2022/01/30 08:39:07;;;;;;;13.48;4.70;;;;;;;;;;5094892;28;20200;-87
2022/01/30 08:41:35;;;;;;;11.13;5.00;;;;;;;;;;5094563;28;20204;-87
2022/01/30 08:44:02;;;;;;;14.68;4.07;;;;;;;;;;5094577;28;20206;-86
2022/01/30 08:46:29;;;;;;;13.77;5.88;;;;;;;;;;5094542;28;20235;-85
2022/01/30 08:48:57;;;;;;;14.88;5.15;;;;;;;;;;5094612;28;20710;-87
2022/01/30 08:51:24;;;;;;;11.05;4.85;;;;;;;;;;5095165;28;20204;-86
2022/01/30 08:53:53;;;;;;;11.32;4.43;;;;;;;;;;5096006;28;20204;-85
2022/01/30 08:56:21;;;;;;;13.70;4.68;;;;;;;;;;5094524;28;20228;-86
2022/01/30 08:58:49;;;;;;;13.23;4.78;;;;;;;;;;5094773;28;20262;-86
2022/01/30 09:01:16;;;;;;;16.25;4.47;;;;;;;;;;5095906;28;20205;-85
2022/01/30 09:03:45;;;;;;;17.38;6.10;;;;;;;;;;5094261;28;20196;-86
2022/01/30 09:06:12;;;;;;;13.30;3.78;;;;;;;;;;5094721;28;20220;-85
2022/01/30 09:08:39;;;;;;;17.73;4.38;;;;;;;;;;5094993;28;20200;-86
2022/01/30 09:11:08;;;;;;;12.45;4.22;;;;;;;;;;5093947;28;20200;-84
2022/01/30 09:13:35;;;;;;;13.30;4.40;;;;;;;;;;5094024;28;20196;-86
2022/01/30 09:16:03;;;;;;;10.93;5.18;;;;;;;;;;5094089;28;20220;-86
2022/01/30 09:18:31;;;;;;;11.48;4.13;;;;;;;;;;5093902;28;20595;-85
2022/01/30 09:20:59;;;;;;;13.35;3.80;;;;;;;;;;5094901;28;20740;-85
2022/01/30 09:23:26;;;;;;;14.25;4.65;;;;;;;;;;5093696;28;20687;-87
2022/01/30 09:25:53;;;;;;;12.70;3.60;;;;;;;;;;5094205;28;20219;-86
2022/01/30 09:28:22;;;;;;;8.25;3.70;;;;;;;;;;5094941;28;20668;-85
2022/01/30 09:30:49;;;;;;;11.98;3.65;;;;;;;;;;5095525;28;20623;-86
2022/01/30 09:33:17;;;;;;;10.93;4.57;;;;;;;;;;5095159;28;20558;-86
2022/01/30 09:35:44;;;;;;;16.65;4.18;;;;;;;;;;5094230;28;20223;-87
2022/01/30 09:38:11;;;;;;;16.55;4.57;;;;;;;;;;5094789;28;20200;-87
2022/01/30 09:40:39;;;;;;;12.70;4.10;;;;;;;;;;5094995;28;20208;-85
2022/01/30 09:43:06;;;;;;;12.98;4.18;;;;;;;;;;5094690;28;20192;-85
2022/01/30 09:45:35;;;;;;;18.95;5.68;;;;;;;;;;5093974;28;20318;-86
2022/01/30 09:48:03;;;;;;;14.63;3.90;;;;;;;;;;5094538;28;20192;-86
2022/01/30 09:50:31;;;;;;;8.30;3.20;;;;;;;;;;5094583;28;20200;-86
2022/01/30 09:52:58;;;;;;;9.43;3.35;;;;;;;;;;5094864;28;20200;-85
2022/01/30 09:55:26;;;;;;;8.48;3.33;;;;;;;;;;5114586;22;20649;-86
2022/01/30 09:57:53;;;;;;;9.85;4.07;;;;;;;;;;5078143;28;20201;-84
2022/01/30 10:00:21;;;;;;;11.80;5.53;;;;;;;;;;5079532;28;20627;-87
2022/01/30 10:02:49;;;;;;;12.82;5.65;;;;;;;;;;5078608;28;20200;-87
2022/01/30 10:05:17;;;;;;;16.73;4.85;;;;;;;;;;5084123;28;20205;-82
2022/01/30 10:07:50;;;;;;;13.80;5.75;;;;;;;;;;5084551;28;20619;-83
2022/01/30 10:10:22;;;;;;;14.45;4.53;;;;;;;;;;5080066;28;20546;-84
2022/01/30 10:13:11;;;;;;;18.15;5.18;;;;;;;;;;5080838;28;20205;-84
2022/01/30 10:15:56;;;;;;;14.35;4.80;;;;;;;;;;5078325;28;20221;-85
2022/01/30 10:18:31;;;;;;;12.98;5.22;;;;;;;;;;5076902;28;20201;-84
2022/01/30 10:21:00;;;;;;;14.32;5.20;;;;;;;;;;5077905;28;20715;-85
2022/01/30 10:23:35;;;;;;;14.95;4.18;;;;;;;;;;5077267;28;20236;-86
2022/01/30 10:26:07;;;;;;;13.25;6.25;;;;;;;;;;5076504;28;20227;-86
2022/01/30 10:28:36;;;;;;;12.15;4.97;;;;;;;;;;5077316;28;20208;-85
2022/01/30 10:31:05;;;;;;;11.73;4.57;;;;;;;;;;5076761;28;20197;-84
2022/01/30 10:33:42;;;;;;;19.02;4.38;;;;;;;;;;5076355;28;20240;-87
2022/01/30 10:36:11;;;;;;;12.32;4.60;;;;;;;;;;5077134;28;20220;-87
2022/01/30 10:38:41;;;;;;;18.60;5.60;;;;;;;;;;5076217;28;20225;-86
2022/01/30 10:41:12;;;;;;;19.27;6.30;;;;;;;;;;5075921;28;20239;-86
2022/01/30 10:43:56;;;;;;;13.68;5.63;;;;;;;;;;5075470;28;20207;-87
2022/01/30 10:46:26;;;;;;;14.82;5.47;;;;;;;;;;5076436;28;20226;-86
2022/01/30 10:49:00;;;;;;;15.90;4.57;;;;;;;;;;5076108;28;20197;-86
2022/01/30 10:51:29;;;;;;;16.05;5.13;;;;;;;;;;5076156;28;20202;-85
2022/01/30 10:53:58;;;;;;;12.80;5.30;;;;;;;;;;5075233;28;20223;-86
2022/01/30 10:56:27;;;;;;;19.55;5.32;;;;;;;;;;5075436;28;20239;-87
2022/01/30 10:59:15;;;;;;;15.48;5.78;;;;;;;;;;5076572;28;20204;-84
2022/01/30 11:01:44;;;;;;;14.27;4.97;;;;;;;;;;5087838;28;20201;-85
2022/01/30 11:04:26;;;;;;;15.68;4.78;;;;;;;;;;5090286;28;20205;-86
2022/01/30 11:06:54;;;;;;;18.40;5.70;;;;;;;;;;5091707;28;20247;-86
2022/01/30 11:09:25;;;;;;;16.85;5.03;;;;;;;;;;5091115;28;20252;-85
2022/01/30 11:11:59;;;;;;;18.27;5.80;;;;;;;;;;5090979;28;20193;-82
2022/01/30 11:14:38;;;;;;;11.30;4.50;;;;;;;;;;5085803;28;20197;-85
2022/01/30 11:17:08;;;;;;;17.95;5.50;;;;;;;;;;5078531;28;20758;-85
2022/01/30 11:19:39;;;;;;;15.50;5.97;;;;;;;;;;5080581;28;20262;-85
2022/01/30 11:22:08;;;;;;;16.52;5.13;;;;;;;;;;5078662;28;20567;-84
2022/01/30 11:24:40;;;;;;;19.38;6.20;;;;;;;;;;5078203;28;20201;-85
2022/01/30 11:27:09;;;;;;;12.63;4.85;;;;;;;;;;5078376;28;20248;-86
2022/01/30 11:29:38;;;;;;;12.38;5.22;;;;;;;;;;5078069;28;20703;-84
2022/01/30 11:32:07;;;;;;;21.58;6.32;;;;;;;;;;5078990;28;20220;-86
2022/01/30 11:34:37;;;;;;;15.45;5.30;;;;;;;;;;5086263;28;20197;-85
2022/01/30 11:37:06;;;;;;;15.48;5.20;;;;;;;;;;5090594;28;20220;-85
2022/01/30 11:39:34;;;;;;;21.00;6.80;;;;;;;;;;5090944;28;20200;-85
2022/01/30 11:42:19;;;;;;;12.93;5.32;;;;;;;;;;5090658;28;20208;-84
2022/01/30 11:44:49;;;;;;;11.18;5.53;;;;;;;;;;5085455;28;20207;-84
2022/01/30 11:47:24;;;;;;;13.48;5.93;;;;;;;;;;5083213;28;20221;-86
2022/01/30 11:50:07;;;;;;;11.75;6.05;;;;;;;;;;5082896;28;20197;-86
2022/01/30 11:52:56;;;;;;;15.32;5.10;;;;;;;;;;5082139;28;20197;-85
2022/01/30 11:55:53;;;;;;;13.60;3.78;;;;;;;;;;5081825;28;20220;-87
2022/01/30 11:58:56;;;;;;;19.02;6.20;;;;;;;;;;5082099;28;20271;-85
2022/01/30 12:01:38;;;;;;;23.88;7.22;;;;;;;;;;5059433;28;20204;-88
2022/01/30 12:04:15;;;;;;;16.23;5.47;;;;;;;;;;5081648;28;20229;-86
2022/01/30 12:06:47;;;;;;;15.82;5.80;;;;;;;;;;5081147;28;20239;-85
2022/01/30 12:09:30;;;;;;;16.83;5.70;;;;;;;;;;5082331;28;20665;-85
2022/01/30 12:12:08;;;;;;;19.70;5.30;;;;;;;;;;5081946;28;20576;-85
2022/01/30 12:14:57;;;;;;;14.95;5.68;;;;;;;;;;5081552;28;20213;-86
2022/01/30 12:17:58;;;;;;;11.02;4.05;;;;;;;;;;5080683;28;20275;-85
2022/01/30 12:20:26;;;;;;;11.88;4.80;;;;;;;;;;5080828;28;20205;-85
2022/01/30 12:22:56;;;;;;;15.30;5.53;;;;;;;;;;5080081;28;20205;-85
2022/01/30 12:25:43;;;;;;;17.15;6.20;;;;;;;;;;5081121;28;20784;-84
2022/01/30 12:28:13;;;;;;;19.95;7.40;;;;;;;;;;5080394;28;20221;-86
2022/01/30 12:30:52;;;;;;;9.30;4.18;;;;;;;;;;5080506;28;20197;-85
2022/01/30 12:33:45;;;;;;;20.88;6.82;;;;;;;;;;5080956;28;20212;-86
2022/01/30 12:36:20;;;;;;;15.95;6.03;;;;;;;;;;5080380;28;20225;-85
2022/01/30 12:39:01;;;;;;;13.48;4.53;;;;;;;;;;5081292;28;20204;-86
2022/01/30 12:41:31;;;;;;;12.75;5.55;;;;;;;;;;5079977;28;20200;-85
2022/01/30 12:44:02;;;;;;;12.85;4.97;;;;;;;;;;5079305;28;20587;-85
2022/01/30 12:46:35;;;;;;;25.88;5.57;;;;;;;;;;5079612;28;20224;-84
2022/01/30 12:49:12;;;;;;;12.02;6.45;;;;;;;;;;5079376;28;20220;-83
2022/01/30 12:51:42;;;;;;;11.90;4.75;;;;;;;;;;5080157;28;20211;-85
2022/01/30 12:54:12;;;;;;;19.48;6.22;;;;;;;;;;5079934;28;20304;-83
2022/01/30 12:56:40;;;;;;;23.30;8.07;;;;;;;;;;5079999;28;20586;-85
2022/01/30 12:59:08;;;;;;;16.40;4.80;;;;;;;;;;5078947;28;20215;-85
2022/01/30 13:01:40;;;;;;;15.10;5.78;;;;;;;;;;5078984;28;20203;-83
2022/01/30 13:04:11;;;;;;;14.35;4.97;;;;;;;;;;5079740;28;20193;-84
2022/01/30 13:06:41;;;;;;;13.32;5.15;;;;;;;;;;5078883;28;20221;-84
2022/01/30 13:09:11;;;;;;;11.43;4.63;;;;;;;;;;5078534;28;20230;-84
2022/01/30 13:11:39;;;;;;;12.30;5.07;;;;;;;;;;5078459;28;20211;-83
2022/01/30 13:14:09;;;;;;;14.07;5.82;;;;;;;;;;5078938;28;20292;-85
2022/01/30 13:16:40;;;;;;;12.68;5.38;;;;;;;;;;5077740;28;20217;-84
2022/01/30 13:19:11;;;;;;;16.35;5.60;;;;;;;;;;5078002;28;20200;-83
2022/01/30 13:21:40;;;;;;;16.73;5.15;;;;;;;;;;5077999;28;20193;-83
2022/01/30 13:24:09;;;;;;;17.30;5.97;;;;;;;;;;5078015;28;20287;-85
2022/01/30 13:26:43;;;;;;;15.38;5.70;;;;;;;;;;5077582;28;20704;-85
2022/01/30 13:29:18;;;;;;;20.88;5.80;;;;;;;;;;5078840;28;20221;-84
2022/01/30 13:31:51;;;;;;;12.82;6.35;;;;;;;;;;5078126;28;20211;-84
2022/01/30 13:34:27;;;;;;;19.27;5.22;;;;;;;;;;5078286;28;20197;-84
2022/01/30 13:37:02;;;;;;;16.85;4.68;;;;;;;;;;5078463;28;20644;-84
2022/01/30 13:39:39;;;;;;;16.95;5.78;;;;;;;;;;5078080;28;20204;-84
2022/01/30 13:42:39;;;;;;;14.60;5.93;;;;;;;;;;5077628;28;20199;-85
2022/01/30 13:48:08;;;;;;;10.25;5.53;;;;;;;;;;5076566;28;20296;-84
2022/01/30 13:50:38;;;;;;;7.72;4.25;;;;;;;;;;5075933;28;20204;-85
2022/01/30 13:53:08;;;;;;;14.35;5.43;;;;;;;;;;5076172;28;20683;-85
2022/01/30 13:55:37;;;;;;;18.10;5.88;;;;;;;;;;5076521;28;20240;-85
2022/01/30 13:58:08;;;;;;;14.27;5.00;;;;;;;;;;5075450;28;20244;-85
2022/01/30 14:00:37;;;;;;;14.98;5.95;;;;;;;;;;5076169;28;20197;-86
2022/01/30 14:03:09;;;;;;;11.98;4.68;;;;;;;;;;5076168;28;20205;-86
2022/01/30 14:05:41;;;;;;;10.43;5.25;;;;;;;;;;5076353;28;20221;-84
2022/01/30 14:08:12;;;;;;;12.73;5.25;;;;;;;;;;5076047;28;20227;-85
2022/01/30 14:10:41;;;;;;;14.05;4.95;;;;;;;;;;5075329;28;20208;-85
2022/01/30 14:13:15;;;;;;;11.00;4.78;;;;;;;;;;5075753;28;20200;-86
2022/01/30 14:15:43;;;;;;;12.25;4.22;;;;;;;;;;5076890;28;20269;-86
2022/01/30 14:18:17;;;;;;;15.02;5.47;;;;;;;;;;5075696;28;20586;-84
2022/01/30 14:20:47;;;;;;;11.60;4.13;;;;;;;;;;5075440;28;20200;-85
2022/01/30 14:23:17;;;;;;;20.63;6.13;;;;;;;;;;5076549;28;20557;-84
2022/01/30 14:25:47;;;;;;;14.20;5.15;;;;;;;;;;5076006;28;20800;-86
2022/01/30 14:28:28;;;;;;;17.50;5.97;;;;;;;;;;5075347;28;20216;-84
2022/01/30 14:30:57;;;;;;;20.75;8.88;;;;;;;;;;5075948;28;20292;-86
2022/01/30 14:33:27;;;;;;;15.60;5.30;;;;;;;;;;5075059;28;20654;-86
2022/01/30 14:35:54;;;;;;;16.98;6.30;;;;;;;;;;5074915;28;20216;-86
2022/01/30 14:38:22;;;;;;;7.13;3.47;;;;;;;;;;5075887;28;20193;-85
2022/01/30 14:40:55;;;;;;;12.85;4.60;;;;;;;;;;5076092;28;20204;-86
2022/01/30 14:43:22;;;;;;;9.73;3.25;;;;;;;;;;5076826;28;20566;-85
2022/01/30 14:45:51;;;;;;;21.00;6.07;;;;;;;;;;5077248;28;20221;-85
2022/01/30 14:48:19;;;;;;;13.20;5.25;;;;;;;;;;5076786;28;20228;-85
2022/01/30 14:50:47;;;;;;;10.75;4.93;;;;;;;;;;5075253;28;20287;-86
2022/01/30 14:53:14;;;;;;;9.32;5.45;;;;;;;;;;5076193;28;20208;-87
2022/01/30 14:55:42;;;;;;;15.15;4.45;;;;;;;;;;5076356;28;20232;-84
2022/01/30 14:58:10;;;;;;;5.68;3.03;;;;;;;;;;5076030;28;20201;-83
2022/01/30 15:00:37;;;;;;;15.15;5.55;;;;;;;;;;5075720;28;20197;-84
2022/01/30 15:03:06;;;;;;;11.70;4.97;;;;;;;;;;5075601;28;20209;-84
2022/01/30 15:05:33;;;;;;;13.25;5.80;;;;;;;;;;5075875;28;20221;-84
2022/01/30 15:08:01;;;;;;;9.10;5.10;;;;;;;;;;5077219;28;20665;-84
2022/01/30 15:10:29;;;;;;;21.63;6.35;;;;;;;;;;5079957;28;20217;-83
2022/01/30 15:12:56;;;;;;;13.75;4.88;;;;;;;;;;5080031;28;20570;-85
2022/01/30 15:15:25;;;;;;;12.35;5.72;;;;;;;;;;5080168;28;20224;-84
2022/01/30 15:17:53;;;;;;;15.35;5.20;;;;;;;;;;5080387;28;20295;-85
2022/01/30 15:20:24;;;;;;;15.82;5.82;;;;;;;;;;5080807;28;20205;-83
2022/01/30 15:22:51;;;;;;;16.45;6.25;;;;;;;;;;5080236;28;20255;-83
2022/01/30 15:25:18;;;;;;;13.65;5.25;;;;;;;;;;5080231;28;20201;-85
2022/01/30 15:27:46;;;;;;;17.75;5.53;;;;;;;;;;5078948;28;20701;-82